sensor_id;sensor_type;location;lat;lon;timestamp;temperature;humidity
71672;DHT22;67659;45.554;11.812;2023-03-15T00:01:06;12.90;99.90
71672;DHT22;67659;45.554;11.812;2023-03-15T00:03:33;12.90;99.90
71672;DHT22;67659;45.554;11.812;2023-03-15T00:06:02;12.80;99.90
71672;DHT22;67659;45.554;11.812;2023-03-15T00:08:29;12.70;99.90
71672;DHT22;67659;45.554;11.812;2023-03-15T00:10:58;12.70;99.90
71672;DHT22;67659;45.554;11.812;2023-03-15T00:13:23;12.50;99.90
71672;DHT22;67659;45.554;11.812;2023-03-15T00:15:51;12.40;99.90
71672;DHT22;67659;45.554;11.812;2023-03-15T00:18:19;12.40;99.90
71672;DHT22;67659;45.554;11.812;2023-03-15T00:20:45;12.40;99.90
71672;DHT22;67659;45.554;11.812;2023-03-15T00:23:12;12.50;99.90
71672;DHT22;67659;45.554;11.812;2023-03-15T00:25:37;12.50;99.90
71672;DHT22;67659;45.554;11.812;2023-03-15T00:28:04;12.50;99.90
71672;DHT22;67659;45.554;11.812;2023-03-15T00:30:29;12.40;99.90
71672;DHT22;67659;45.554;11.812;2023-03-15T00:32:55;12.60;99.90
71672;DHT22;67659;45.554;11.812;2023-03-15T00:35:21;12.70;99.90
71672;DHT22;67659;45.554;11.812;2023-03-15T00:37:52;12.60;99.90
71672;DHT22;67659;45.554;11.812;2023-03-15T00:40:19;12.40;99.90
71672;DHT22;67659;45.554;11.812;2023-03-15T00:42:45;12.20;99.90
71672;DHT22;67659;45.554;11.812;2023-03-15T00:45:19;12.10;99.90
71672;DHT22;67659;45.554;11.812;2023-03-15T00:47:48;12.20;99.90
71672;DHT22;67659;45.554;11.812;2023-03-15T00:50:14;11.90;99.90
71672;DHT22;67659;45.554;11.812;2023-03-15T00:52:40;11.80;99.90
71672;DHT22;67659;45.554;11.812;2023-03-15T00:55:10;11.70;99.90
71672;DHT22;67659;45.554;11.812;2023-03-15T00:57:39;11.80;99.90
71672;DHT22;67659;45.554;11.812;2023-03-15T01:00:07;11.60;99.90
71672;DHT22;67659;45.554;11.812;2023-03-15T01:02:34;11.50;99.90
71672;DHT22;67659;45.554;11.812;2023-03-15T01:05:02;11.60;99.90
71672;DHT22;67659;45.554;11.812;2023-03-15T01:07:28;11.40;99.90
71672;DHT22;67659;45.554;11.812;2023-03-15T01:09:58;11.30;99.90
71672;DHT22;67659;45.554;11.812;2023-03-15T01:12:24;11.30;99.90
71672;DHT22;67659;45.554;11.812;2023-03-15T01:14:50;11.30;99.90
71672;DHT22;67659;45.554;11.812;2023-03-15T01:17:15;11.20;99.90
71672;DHT22;67659;45.554;11.812;2023-03-15T01:19:41;11.20;99.90
71672;DHT22;67659;45.554;11.812;2023-03-15T01:22:07;11.30;99.90
71672;DHT22;67659;45.554;11.812;2023-03-15T01:24:33;11.50;99.90
71672;DHT22;67659;45.554;11.812;2023-03-15T01:26:58;11.30;99.90
71672;DHT22;67659;45.554;11.812;2023-03-15T01:29:24;11.20;99.90
71672;DHT22;67659;45.554;11.812;2023-03-15T01:31:50;11.20;99.90
71672;DHT22;67659;45.554;11.812;2023-03-15T01:34:16;11.20;99.90
71672;DHT22;67659;45.554;11.812;2023-03-15T01:36:41;11.10;99.90
71672;DHT22;67659;45.554;11.812;2023-03-15T01:39:07;11.10;99.90
71672;DHT22;67659;45.554;11.812;2023-03-15T01:41:33;11.00;99.90
71672;DHT22;67659;45.554;11.812;2023-03-15T01:43:58;11.10;99.90
71672;DHT22;67659;45.554;11.812;2023-03-15T01:46:31;10.90;99.90
71672;DHT22;67659;45.554;11.812;2023-03-15T01:49:04;10.90;99.90
71672;DHT22;67659;45.554;11.812;2023-03-15T01:57:12;11.10;99.90
71672;DHT22;67659;45.554;11.812;2023-03-15T01:59:45;11.20;99.90
71672;DHT22;67659;45.554;11.812;2023-03-15T02:02:12;11.30;99.90
71672;DHT22;67659;45.554;11.812;2023-03-15T02:04:45;11.40;99.90
71672;DHT22;67659;45.554;11.812;2023-03-15T02:07:14;11.50;99.90
71672;DHT22;67659;45.554;11.812;2023-03-15T02:10:03;11.50;99.90
71672;DHT22;67659;45.554;11.812;2023-03-15T02:12:31;11.50;99.90
71672;DHT22;67659;45.554;11.812;2023-03-15T02:15:00;11.30;99.90
71672;DHT22;67659;45.554;11.812;2023-03-15T02:17:37;11.30;99.90
71672;DHT22;67659;45.554;11.812;2023-03-15T02:20:18;11.40;99.90
71672;DHT22;67659;45.554;11.812;2023-03-15T02:22:59;11.50;99.90
71672;DHT22;67659;45.554;11.812;2023-03-15T02:28:02;11.40;99.90
71672;DHT22;67659;45.554;11.812;2023-03-15T02:30:29;11.60;99.90
71672;DHT22;67659;45.554;11.812;2023-03-15T02:32:57;11.50;99.90
71672;DHT22;67659;45.554;11.812;2023-03-15T02:35:28;11.50;99.90
71672;DHT22;67659;45.554;11.812;2023-03-15T02:37:55;11.40;99.90
71672;DHT22;67659;45.554;11.812;2023-03-15T02:40:23;11.40;99.90
71672;DHT22;67659;45.554;11.812;2023-03-15T02:42:58;11.30;99.90
71672;DHT22;67659;45.554;11.812;2023-03-15T02:45:26;11.40;99.90
71672;DHT22;67659;45.554;11.812;2023-03-15T02:47:54;11.30;99.90
71672;DHT22;67659;45.554;11.812;2023-03-15T02:50:19;11.40;99.90
71672;DHT22;67659;45.554;11.812;2023-03-15T02:52:45;11.30;99.90
71672;DHT22;67659;45.554;11.812;2023-03-15T02:55:11;11.10;99.90
71672;DHT22;67659;45.554;11.812;2023-03-15T02:57:37;11.00;99.90
71672;DHT22;67659;45.554;11.812;2023-03-15T03:00:04;10.70;99.90
71672;DHT22;67659;45.554;11.812;2023-03-15T03:02:38;10.70;99.90
71672;DHT22;67659;45.554;11.812;2023-03-15T03:05:04;10.70;99.90
71672;DHT22;67659;45.554;11.812;2023-03-15T03:07:30;10.80;99.90
71672;DHT22;67659;45.554;11.812;2023-03-15T03:09:56;10.60;99.90
71672;DHT22;67659;45.554;11.812;2023-03-15T03:12:22;10.70;99.90
71672;DHT22;67659;45.554;11.812;2023-03-15T03:14:47;10.70;99.90
71672;DHT22;67659;45.554;11.812;2023-03-15T03:17:13;10.70;99.90
71672;DHT22;67659;45.554;11.812;2023-03-15T03:19:39;10.70;99.90
71672;DHT22;67659;45.554;11.812;2023-03-15T03:22:05;10.60;99.90
71672;DHT22;67659;45.554;11.812;2023-03-15T03:24:31;10.70;99.90
71672;DHT22;67659;45.554;11.812;2023-03-15T03:26:56;10.60;99.90
71672;DHT22;67659;45.554;11.812;2023-03-15T03:29:23;10.60;99.90
71672;DHT22;67659;45.554;11.812;2023-03-15T03:31:49;10.70;99.90
71672;DHT22;67659;45.554;11.812;2023-03-15T03:34:15;10.60;99.90
71672;DHT22;67659;45.554;11.812;2023-03-15T03:36:42;10.70;99.90
71672;DHT22;67659;45.554;11.812;2023-03-15T03:39:08;10.60;99.90
71672;DHT22;67659;45.554;11.812;2023-03-15T03:41:34;10.60;99.90
71672;DHT22;67659;45.554;11.812;2023-03-15T03:44:00;10.60;99.90
71672;DHT22;67659;45.554;11.812;2023-03-15T03:46:25;10.70;99.90
71672;DHT22;67659;45.554;11.812;2023-03-15T03:48:53;10.70;99.90
71672;DHT22;67659;45.554;11.812;2023-03-15T03:51:19;10.60;99.90
71672;DHT22;67659;45.554;11.812;2023-03-15T03:53:45;10.60;99.90
71672;DHT22;67659;45.554;11.812;2023-03-15T03:56:10;10.60;99.90
71672;DHT22;67659;45.554;11.812;2023-03-15T03:58:36;10.70;99.90
71672;DHT22;67659;45.554;11.812;2023-03-15T04:01:02;10.60;99.90
71672;DHT22;67659;45.554;11.812;2023-03-15T04:03:28;10.70;99.90
71672;DHT22;67659;45.554;11.812;2023-03-15T04:05:56;10.60;99.90
71672;DHT22;67659;45.554;11.812;2023-03-15T04:08:23;10.50;99.90
71672;DHT22;67659;45.554;11.812;2023-03-15T04:10:51;10.50;99.90
71672;DHT22;67659;45.554;11.812;2023-03-15T04:13:18;10.60;99.90
71672;DHT22;67659;45.554;11.812;2023-03-15T04:15:43;10.60;99.90
71672;DHT22;67659;45.554;11.812;2023-03-15T04:18:09;10.60;99.90
71672;DHT22;67659;45.554;11.812;2023-03-15T04:20:35;10.50;99.90
71672;DHT22;67659;45.554;11.812;2023-03-15T04:23:00;10.40;99.90
71672;DHT22;67659;45.554;11.812;2023-03-15T04:25:26;10.40;99.90
71672;DHT22;67659;45.554;11.812;2023-03-15T04:27:53;10.40;99.90
71672;DHT22;67659;45.554;11.812;2023-03-15T04:30:28;10.40;99.90
71672;DHT22;67659;45.554;11.812;2023-03-15T04:32:55;10.40;99.90
71672;DHT22;67659;45.554;11.812;2023-03-15T04:35:25;10.40;99.90
71672;DHT22;67659;45.554;11.812;2023-03-15T04:37:51;10.40;99.90
71672;DHT22;67659;45.554;11.812;2023-03-15T04:40:17;10.50;99.90
71672;DHT22;67659;45.554;11.812;2023-03-15T04:42:43;10.40;99.90
71672;DHT22;67659;45.554;11.812;2023-03-15T04:45:09;10.50;99.90
71672;DHT22;67659;45.554;11.812;2023-03-15T04:47:35;10.60;99.90
71672;DHT22;67659;45.554;11.812;2023-03-15T04:50:02;10.70;99.90
71672;DHT22;67659;45.554;11.812;2023-03-15T04:52:27;10.90;99.90
71672;DHT22;67659;45.554;11.812;2023-03-15T04:54:53;10.80;99.90
71672;DHT22;67659;45.554;11.812;2023-03-15T04:57:19;11.00;99.90
71672;DHT22;67659;45.554;11.812;2023-03-15T04:59:44;11.10;99.90
71672;DHT22;67659;45.554;11.812;2023-03-15T05:02:10;11.20;99.90
71672;DHT22;67659;45.554;11.812;2023-03-15T05:04:36;11.30;99.90
71672;DHT22;67659;45.554;11.812;2023-03-15T05:07:01;11.20;99.90
71672;DHT22;67659;45.554;11.812;2023-03-15T05:09:27;11.10;99.90
71672;DHT22;67659;45.554;11.812;2023-03-15T05:11:53;11.20;99.90
71672;DHT22;67659;45.554;11.812;2023-03-15T05:14:19;11.20;99.90
71672;DHT22;67659;45.554;11.812;2023-03-15T05:16:45;11.10;99.90
71672;DHT22;67659;45.554;11.812;2023-03-15T05:19:12;11.10;99.90
71672;DHT22;67659;45.554;11.812;2023-03-15T05:21:38;11.10;99.90
71672;DHT22;67659;45.554;11.812;2023-03-15T05:24:04;10.80;99.90
71672;DHT22;67659;45.554;11.812;2023-03-15T05:26:30;10.70;99.90
71672;DHT22;67659;45.554;11.812;2023-03-15T05:28:55;10.60;99.90
71672;DHT22;67659;45.554;11.812;2023-03-15T05:31:21;10.40;99.90
71672;DHT22;67659;45.554;11.812;2023-03-15T05:33:47;10.30;99.90
71672;DHT22;67659;45.554;11.812;2023-03-15T05:36:13;10.20;99.90
71672;DHT22;67659;45.554;11.812;2023-03-15T05:38:40;10.20;99.90
71672;DHT22;67659;45.554;11.812;2023-03-15T05:41:09;10.30;99.90
71672;DHT22;67659;45.554;11.812;2023-03-15T05:43:35;10.40;99.90
71672;DHT22;67659;45.554;11.812;2023-03-15T05:46:01;10.50;99.90
71672;DHT22;67659;45.554;11.812;2023-03-15T05:48:26;10.50;99.90
71672;DHT22;67659;45.554;11.812;2023-03-15T05:50:52;10.50;99.90
71672;DHT22;67659;45.554;11.812;2023-03-15T05:53:18;10.60;99.90
71672;DHT22;67659;45.554;11.812;2023-03-15T05:55:43;10.70;99.90
71672;DHT22;67659;45.554;11.812;2023-03-15T05:58:09;10.80;99.90
71672;DHT22;67659;45.554;11.812;2023-03-15T06:00:35;10.90;99.90
71672;DHT22;67659;45.554;11.812;2023-03-15T06:03:00;11.00;99.90
71672;DHT22;67659;45.554;11.812;2023-03-15T06:05:26;10.90;99.90
71672;DHT22;67659;45.554;11.812;2023-03-15T06:07:52;10.90;99.90
71672;DHT22;67659;45.554;11.812;2023-03-15T06:10:18;11.00;99.90
71672;DHT22;67659;45.554;11.812;2023-03-15T06:12:43;11.40;99.90
71672;DHT22;67659;45.554;11.812;2023-03-15T06:15:09;11.60;99.90
71672;DHT22;67659;45.554;11.812;2023-03-15T06:17:35;12.00;99.90
71672;DHT22;67659;45.554;11.812;2023-03-15T06:20:01;12.20;99.90
71672;DHT22;67659;45.554;11.812;2023-03-15T06:22:27;12.10;99.90
71672;DHT22;67659;45.554;11.812;2023-03-15T06:24:52;11.90;99.90
71672;DHT22;67659;45.554;11.812;2023-03-15T06:27:18;12.00;99.90
71672;DHT22;67659;45.554;11.812;2023-03-15T06:29:49;12.30;99.90
71672;DHT22;67659;45.554;11.812;2023-03-15T06:32:15;12.60;99.90
71672;DHT22;67659;45.554;11.812;2023-03-15T06:34:41;12.70;99.90
71672;DHT22;67659;45.554;11.812;2023-03-15T06:37:07;12.80;99.90
71672;DHT22;67659;45.554;11.812;2023-03-15T06:39:32;12.30;99.90
71672;DHT22;67659;45.554;11.812;2023-03-15T06:41:59;12.30;99.90
71672;DHT22;67659;45.554;11.812;2023-03-15T06:44:27;12.20;99.90
71672;DHT22;67659;45.554;11.812;2023-03-15T06:46:53;12.50;99.90
71672;DHT22;67659;45.554;11.812;2023-03-15T06:49:18;12.60;99.90
71672;DHT22;67659;45.554;11.812;2023-03-15T06:51:44;12.70;99.90
71672;DHT22;67659;45.554;11.812;2023-03-15T06:54:10;13.10;99.90
71672;DHT22;67659;45.554;11.812;2023-03-15T06:56:36;13.50;99.90
71672;DHT22;67659;45.554;11.812;2023-03-15T06:59:03;13.90;99.90
71672;DHT22;67659;45.554;11.812;2023-03-15T07:01:29;14.20;99.90
71672;DHT22;67659;45.554;11.812;2023-03-15T07:03:55;14.20;99.90
71672;DHT22;67659;45.554;11.812;2023-03-15T07:06:21;14.10;99.90
71672;DHT22;67659;45.554;11.812;2023-03-15T07:08:46;14.30;99.90
71672;DHT22;67659;45.554;11.812;2023-03-15T07:11:12;14.10;99.90
71672;DHT22;67659;45.554;11.812;2023-03-15T07:13:38;14.40;99.90
71672;DHT22;67659;45.554;11.812;2023-03-15T07:16:04;14.60;99.90
71672;DHT22;67659;45.554;11.812;2023-03-15T07:18:32;14.50;99.90
71672;DHT22;67659;45.554;11.812;2023-03-15T07:21:00;14.50;99.90
71672;DHT22;67659;45.554;11.812;2023-03-15T07:23:26;14.50;99.90
71672;DHT22;67659;45.554;11.812;2023-03-15T07:25:53;14.30;99.90
71672;DHT22;67659;45.554;11.812;2023-03-15T07:28:19;14.40;99.90
71672;DHT22;67659;45.554;11.812;2023-03-15T07:31:02;14.50;99.90
71672;DHT22;67659;45.554;11.812;2023-03-15T07:33:30;14.20;99.90
71672;DHT22;67659;45.554;11.812;2023-03-15T07:35:57;13.80;99.90
71672;DHT22;67659;45.554;11.812;2023-03-15T07:38:24;13.50;99.90
71672;DHT22;67659;45.554;11.812;2023-03-15T07:40:51;13.60;99.90
71672;DHT22;67659;45.554;11.812;2023-03-15T07:43:17;13.60;99.90
71672;DHT22;67659;45.554;11.812;2023-03-15T07:45:42;13.80;99.90
71672;DHT22;67659;45.554;11.812;2023-03-15T07:48:08;14.20;99.90
71672;DHT22;67659;45.554;11.812;2023-03-15T07:50:34;14.50;99.90
71672;DHT22;67659;45.554;11.812;2023-03-15T07:53:03;14.70;99.90
71672;DHT22;67659;45.554;11.812;2023-03-15T07:55:31;15.00;99.90
71672;DHT22;67659;45.554;11.812;2023-03-15T07:57:56;15.80;99.90
71672;DHT22;67659;45.554;11.812;2023-03-15T08:00:22;16.40;99.90
71672;DHT22;67659;45.554;11.812;2023-03-15T08:02:48;16.70;99.90
71672;DHT22;67659;45.554;11.812;2023-03-15T08:05:14;16.80;99.90
71672;DHT22;67659;45.554;11.812;2023-03-15T08:07:47;16.80;99.90
71672;DHT22;67659;45.554;11.812;2023-03-15T08:10:14;16.50;99.90
71672;DHT22;67659;45.554;11.812;2023-03-15T08:12:41;15.90;99.90
71672;DHT22;67659;45.554;11.812;2023-03-15T08:15:11;15.60;99.90
71672;DHT22;67659;45.554;11.812;2023-03-15T08:17:38;15.90;99.90
71672;DHT22;67659;45.554;11.812;2023-03-15T08:20:05;16.30;99.90
71672;DHT22;67659;45.554;11.812;2023-03-15T08:22:32;16.60;99.90
71672;DHT22;67659;45.554;11.812;2023-03-15T08:24:58;16.90;99.90
71672;DHT22;67659;45.554;11.812;2023-03-15T08:27:24;17.30;99.90
71672;DHT22;67659;45.554;11.812;2023-03-15T08:29:50;18.30;99.90
71672;DHT22;67659;45.554;11.812;2023-03-15T08:32:17;19.60;99.90
71672;DHT22;67659;45.554;11.812;2023-03-15T08:34:44;20.80;83.30
71672;DHT22;67659;45.554;11.812;2023-03-15T08:37:10;21.90;75.40
71672;DHT22;67659;45.554;11.812;2023-03-15T08:39:37;23.50;72.10
71672;DHT22;67659;45.554;11.812;2023-03-15T08:42:03;25.20;63.30
71672;DHT22;67659;45.554;11.812;2023-03-15T08:44:29;26.20;56.40
71672;DHT22;67659;45.554;11.812;2023-03-15T08:46:55;27.00;53.20
71672;DHT22;67659;45.554;11.812;2023-03-15T08:49:20;25.50;56.20
71672;DHT22;67659;45.554;11.812;2023-03-15T08:51:46;26.30;56.80
71672;DHT22;67659;45.554;11.812;2023-03-15T08:54:12;26.90;52.60
71672;DHT22;67659;45.554;11.812;2023-03-15T08:56:39;26.30;53.90
71672;DHT22;67659;45.554;11.812;2023-03-15T08:59:06;24.70;54.90
71672;DHT22;67659;45.554;11.812;2023-03-15T09:01:32;22.00;69.30
71672;DHT22;67659;45.554;11.812;2023-03-15T09:03:59;20.20;77.30
71672;DHT22;67659;45.554;11.812;2023-03-15T09:06:26;19.10;82.70
71672;DHT22;67659;45.554;11.812;2023-03-15T09:08:53;17.10;72.30
71672;DHT22;67659;45.554;11.812;2023-03-15T09:11:20;16.90;59.00
71672;DHT22;67659;45.554;11.812;2023-03-15T09:13:47;15.80;60.60
71672;DHT22;67659;45.554;11.812;2023-03-15T09:16:13;14.90;64.80
71672;DHT22;67659;45.554;11.812;2023-03-15T09:18:39;14.50;71.00
71672;DHT22;67659;45.554;11.812;2023-03-15T09:21:06;13.70;72.30
71672;DHT22;67659;45.554;11.812;2023-03-15T09:23:31;13.50;73.80
71672;DHT22;67659;45.554;11.812;2023-03-15T09:25:57;13.00;74.00
71672;DHT22;67659;45.554;11.812;2023-03-15T09:28:23;12.90;76.90
71672;DHT22;67659;45.554;11.812;2023-03-15T09:30:50;13.10;75.10
71672;DHT22;67659;45.554;11.812;2023-03-15T09:33:16;13.00;75.70
71672;DHT22;67659;45.554;11.812;2023-03-15T09:35:42;12.90;76.10
71672;DHT22;67659;45.554;11.812;2023-03-15T09:38:08;12.70;76.90
71672;DHT22;67659;45.554;11.812;2023-03-15T09:40:39;12.90;76.60
71672;DHT22;67659;45.554;11.812;2023-03-15T09:48:30;13.50;76.60
71672;DHT22;67659;45.554;11.812;2023-03-15T09:53:44;18.80;57.40
71672;DHT22;67659;45.554;11.812;2023-03-15T09:56:46;20.40;52.80
71672;DHT22;67659;45.554;11.812;2023-03-15T09:59:11;21.50;49.30
71672;DHT22;67659;45.554;11.812;2023-03-15T10:01:39;21.90;49.40
71672;DHT22;67659;45.554;11.812;2023-03-15T10:04:30;22.40;48.70
71672;DHT22;67659;45.554;11.812;2023-03-15T10:07:01;22.90;48.30
71672;DHT22;67659;45.554;11.812;2023-03-15T10:09:29;23.60;42.60
71672;DHT22;67659;45.554;11.812;2023-03-15T10:17:57;24.20;39.40
71672;DHT22;67659;45.554;11.812;2023-03-15T10:20:43;24.20;40.20
71672;DHT22;67659;45.554;11.812;2023-03-15T10:25:42;25.40;37.80
71672;DHT22;67659;45.554;11.812;2023-03-15T10:28:12;25.80;35.90
71672;DHT22;67659;45.554;11.812;2023-03-15T10:30:45;26.40;34.10
71672;DHT22;67659;45.554;11.812;2023-03-15T10:33:33;26.60;35.10
71672;DHT22;67659;45.554;11.812;2023-03-15T10:36:00;26.80;33.10
71672;DHT22;67659;45.554;11.812;2023-03-15T10:38:26;26.70;33.00
71672;DHT22;67659;45.554;11.812;2023-03-15T10:40:57;27.40;32.60
71672;DHT22;67659;45.554;11.812;2023-03-15T10:48:58;28.20;30.90
71672;DHT22;67659;45.554;11.812;2023-03-15T10:51:30;29.10;30.10
71672;DHT22;67659;45.554;11.812;2023-03-15T10:54:05;27.90;29.30
71672;DHT22;67659;45.554;11.812;2023-03-15T10:56:37;27.80;30.40
71672;DHT22;67659;45.554;11.812;2023-03-15T10:59:18;28.00;32.60
71672;DHT22;67659;45.554;11.812;2023-03-15T11:01:51;27.50;31.10
71672;DHT22;67659;45.554;11.812;2023-03-15T11:04:20;26.10;31.80
71672;DHT22;67659;45.554;11.812;2023-03-15T11:06:49;27.10;33.10
71672;DHT22;67659;45.554;11.812;2023-03-15T11:09:20;27.90;31.90
71672;DHT22;67659;45.554;11.812;2023-03-15T11:12:03;26.80;33.70
71672;DHT22;67659;45.554;11.812;2023-03-15T11:14:39;27.50;36.50
71672;DHT22;67659;45.554;11.812;2023-03-15T11:17:14;29.80;34.00
71672;DHT22;67659;45.554;11.812;2023-03-15T11:19:42;29.10;30.20
71672;DHT22;67659;45.554;11.812;2023-03-15T11:22:12;28.00;31.10
71672;DHT22;67659;45.554;11.812;2023-03-15T11:24:39;27.10;31.10
71672;DHT22;67659;45.554;11.812;2023-03-15T11:27:11;28.30;30.40
71672;DHT22;67659;45.554;11.812;2023-03-15T11:29:41;28.50;31.00
71672;DHT22;67659;45.554;11.812;2023-03-15T11:32:28;28.60;30.40
71672;DHT22;67659;45.554;11.812;2023-03-15T11:35:11;27.30;33.30
71672;DHT22;67659;45.554;11.812;2023-03-15T11:37:57;27.00;30.30
71672;DHT22;67659;45.554;11.812;2023-03-15T11:40:48;28.60;29.50
71672;DHT22;67659;45.554;11.812;2023-03-15T11:43:18;28.60;27.30
71672;DHT22;67659;45.554;11.812;2023-03-15T11:45:54;29.60;27.60
71672;DHT22;67659;45.554;11.812;2023-03-15T11:48:57;28.80;28.10
71672;DHT22;67659;45.554;11.812;2023-03-15T11:51:25;28.90;29.00
71672;DHT22;67659;45.554;11.812;2023-03-15T11:54:16;31.00;29.90
71672;DHT22;67659;45.554;11.812;2023-03-15T11:59:32;30.10;27.80
71672;DHT22;67659;45.554;11.812;2023-03-15T12:01:59;29.00;30.40
71672;DHT22;67659;45.554;11.812;2023-03-15T12:04:36;29.20;27.30
71672;DHT22;67659;45.554;11.812;2023-03-15T12:17:53;28.10;26.90
71672;DHT22;67659;45.554;11.812;2023-03-15T12:25:55;27.80;29.20
71672;DHT22;67659;45.554;11.812;2023-03-15T12:28:27;27.40;28.10
71672;DHT22;67659;45.554;11.812;2023-03-15T12:30:59;27.70;27.80
71672;DHT22;67659;45.554;11.812;2023-03-15T12:33:27;27.70;29.40
71672;DHT22;67659;45.554;11.812;2023-03-15T12:36:06;28.00;27.20
71672;DHT22;67659;45.554;11.812;2023-03-15T12:38:38;27.20;28.80
71672;DHT22;67659;45.554;11.812;2023-03-15T12:47:00;28.70;26.80
71672;DHT22;67659;45.554;11.812;2023-03-15T12:49:30;29.30;26.60
71672;DHT22;67659;45.554;11.812;2023-03-15T12:52:01;29.10;28.10
71672;DHT22;67659;45.554;11.812;2023-03-15T12:54:43;28.30;30.20
71672;DHT22;67659;45.554;11.812;2023-03-15T12:57:17;27.40;30.30
71672;DHT22;67659;45.554;11.812;2023-03-15T13:02:27;26.30;30.50
71672;DHT22;67659;45.554;11.812;2023-03-15T13:05:24;26.80;28.60
71672;DHT22;67659;45.554;11.812;2023-03-15T13:16:31;28.80;26.70
71672;DHT22;67659;45.554;11.812;2023-03-15T13:19:22;29.00;24.80
71672;DHT22;67659;45.554;11.812;2023-03-15T13:22:04;28.40;26.40
71672;DHT22;67659;45.554;11.812;2023-03-15T13:24:53;28.10;27.00
71672;DHT22;67659;45.554;11.812;2023-03-15T13:28:09;28.00;25.30
71672;DHT22;67659;45.554;11.812;2023-03-15T13:30:32;28.40;24.60
71672;DHT22;67659;45.554;11.812;2023-03-15T13:38:25;29.40;22.10
71672;DHT22;67659;45.554;11.812;2023-03-15T13:40:53;29.50;22.20
71672;DHT22;67659;45.554;11.812;2023-03-15T13:43:19;28.50;21.10
71672;DHT22;67659;45.554;11.812;2023-03-15T13:45:45;27.80;24.70
71672;DHT22;67659;45.554;11.812;2023-03-15T13:48:11;25.90;28.10
71672;DHT22;67659;45.554;11.812;2023-03-15T13:50:37;25.80;27.60
71672;DHT22;67659;45.554;11.812;2023-03-15T13:53:03;26.60;28.10
71672;DHT22;67659;45.554;11.812;2023-03-15T13:55:34;28.30;25.60
71672;DHT22;67659;45.554;11.812;2023-03-15T13:58:05;27.70;22.60
71672;DHT22;67659;45.554;11.812;2023-03-15T14:00:33;26.40;24.60
71672;DHT22;67659;45.554;11.812;2023-03-15T14:03:06;27.20;24.10
71672;DHT22;67659;45.554;11.812;2023-03-15T14:05:43;26.80;25.50
71672;DHT22;67659;45.554;11.812;2023-03-15T14:13:32;26.40;25.20
71672;DHT22;67659;45.554;11.812;2023-03-15T14:16:06;26.80;25.00
71672;DHT22;67659;45.554;11.812;2023-03-15T14:18:38;27.00;25.90
71672;DHT22;67659;45.554;11.812;2023-03-15T14:21:15;25.80;28.00
71672;DHT22;67659;45.554;11.812;2023-03-15T14:23:44;26.00;28.00
71672;DHT22;67659;45.554;11.812;2023-03-15T14:26:16;25.90;27.90
71672;DHT22;67659;45.554;11.812;2023-03-15T14:28:51;25.40;26.00
71672;DHT22;67659;45.554;11.812;2023-03-15T14:31:28;25.40;24.50
71672;DHT22;67659;45.554;11.812;2023-03-15T14:33:58;25.70;26.90
71672;DHT22;67659;45.554;11.812;2023-03-15T14:36:41;25.40;28.10
71672;DHT22;67659;45.554;11.812;2023-03-15T14:39:26;25.90;26.50
71672;DHT22;67659;45.554;11.812;2023-03-15T14:41:53;26.10;25.40
71672;DHT22;67659;45.554;11.812;2023-03-15T14:44:19;25.40;25.30
71672;DHT22;67659;45.554;11.812;2023-03-15T14:46:46;25.40;25.10
71672;DHT22;67659;45.554;11.812;2023-03-15T14:49:23;25.70;27.20
71672;DHT22;67659;45.554;11.812;2023-03-15T14:51:54;24.40;29.20
71672;DHT22;67659;45.554;11.812;2023-03-15T14:54:22;25.10;28.90
71672;DHT22;67659;45.554;11.812;2023-03-15T14:56:48;24.80;30.10
71672;DHT22;67659;45.554;11.812;2023-03-15T14:59:13;25.10;30.80
71672;DHT22;67659;45.554;11.812;2023-03-15T15:01:41;23.90;30.00
71672;DHT22;67659;45.554;11.812;2023-03-15T15:04:10;23.00;32.60
71672;DHT22;67659;45.554;11.812;2023-03-15T15:06:36;22.40;33.80
71672;DHT22;67659;45.554;11.812;2023-03-15T15:09:03;22.70;33.30
71672;DHT22;67659;45.554;11.812;2023-03-15T15:11:30;21.00;35.10
71672;DHT22;67659;45.554;11.812;2023-03-15T15:13:56;20.60;37.40
71672;DHT22;67659;45.554;11.812;2023-03-15T15:16:22;20.70;38.50
71672;DHT22;67659;45.554;11.812;2023-03-15T15:18:48;21.50;41.40
71672;DHT22;67659;45.554;11.812;2023-03-15T15:21:18;21.10;39.10
71672;DHT22;67659;45.554;11.812;2023-03-15T15:23:45;20.60;38.50
71672;DHT22;67659;45.554;11.812;2023-03-15T15:26:23;20.90;38.00
71672;DHT22;67659;45.554;11.812;2023-03-15T15:28:51;20.80;39.60
71672;DHT22;67659;45.554;11.812;2023-03-15T15:31:19;20.50;41.10
71672;DHT22;67659;45.554;11.812;2023-03-15T15:33:48;20.70;42.10
71672;DHT22;67659;45.554;11.812;2023-03-15T15:36:26;20.50;40.20
71672;DHT22;67659;45.554;11.812;2023-03-15T15:38:54;20.10;40.20
71672;DHT22;67659;45.554;11.812;2023-03-15T15:41:25;19.10;41.90
71672;DHT22;67659;45.554;11.812;2023-03-15T15:43:52;19.00;45.30
71672;DHT22;67659;45.554;11.812;2023-03-15T15:46:17;18.50;43.50
71672;DHT22;67659;45.554;11.812;2023-03-15T15:48:44;18.10;45.60
71672;DHT22;67659;45.554;11.812;2023-03-15T15:51:26;18.00;47.00
71672;DHT22;67659;45.554;11.812;2023-03-15T15:53:54;18.30;48.20
71672;DHT22;67659;45.554;11.812;2023-03-15T15:56:23;18.40;47.40
71672;DHT22;67659;45.554;11.812;2023-03-15T15:58:51;18.30;47.10
71672;DHT22;67659;45.554;11.812;2023-03-15T16:01:17;18.20;47.00
71672;DHT22;67659;45.554;11.812;2023-03-15T16:03:43;17.90;49.10
71672;DHT22;67659;45.554;11.812;2023-03-15T16:06:16;17.50;49.50
71672;DHT22;67659;45.554;11.812;2023-03-15T16:08:42;17.40;49.70
71672;DHT22;67659;45.554;11.812;2023-03-15T16:11:11;17.50;50.00
71672;DHT22;67659;45.554;11.812;2023-03-15T16:13:37;17.40;50.00
71672;DHT22;67659;45.554;11.812;2023-03-15T16:16:03;17.30;51.30
71672;DHT22;67659;45.554;11.812;2023-03-15T16:18:29;17.20;50.90
71672;DHT22;67659;45.554;11.812;2023-03-15T16:20:57;17.20;51.60
71672;DHT22;67659;45.554;11.812;2023-03-15T16:23:24;17.00;49.20
71672;DHT22;67659;45.554;11.812;2023-03-15T16:25:53;16.90;52.20
71672;DHT22;67659;45.554;11.812;2023-03-15T16:28:24;16.80;51.60
71672;DHT22;67659;45.554;11.812;2023-03-15T16:30:50;16.90;52.30
71672;DHT22;67659;45.554;11.812;2023-03-15T16:33:19;16.80;51.30
71672;DHT22;67659;45.554;11.812;2023-03-15T16:35:46;16.70;51.40
71672;DHT22;67659;45.554;11.812;2023-03-15T16:38:17;16.60;51.60
71672;DHT22;67659;45.554;11.812;2023-03-15T16:40:49;16.50;52.10
71672;DHT22;67659;45.554;11.812;2023-03-15T16:43:15;16.50;52.70